To NAV CANADA Home Page Login to a new session Search on AWWS site Feedback and Comments Disclaimer Vers la page française équivalente Tips FAQ What's new on the site To the Forecasts and Observations / NOTAM section To "File a Flight Plan" website Publications and other links Update of the User's profile FIC Telephone Numbers My Weather Data Folder Route Weather Data Regional Weather Data Local Weather Data To the Forecasts and Observations / NOTAM section
Request Generated 05/22/2015 at 09:54:04 UTC . Weather information available at that time is displayed.

METAR/TAF

THUNDER BAY/ON    

METAR CYQT 220900Z 30003KT 15SM SKC M02/M02 A3018 RMK SLP225=
METAR CYQT 220800Z 32002KT 15SM SKC M01/M03 A3015 RMK SLP217=
METAR CYQT 220700Z 24002KT 15SM SKC M00/M01 A3014 RMK SLP213=

TAF CYQT 220738Z 2208/2220 VRB03KT P6SM SKC
BECMG 2214/2216 15008KT
BECMG 2218/2220 16012KT
RMK NXT FCST BY 221400Z=
Your time UTC time
Weather data provided by Environment Canada and NAV CANADA